Terminal Aerodrome Forecast
Issued by NWS

Home | Current Version | Previous Version | Graphics & Text | Print | Product List | Glossary On
Versions: 1 2 3 4 5 6 7 8 9 10 11 12 13 14 15 16 17 18
000
FTUS43 KBIS 181732
TAFDIK
TAF
KDIK 181732Z 1818/1918 15007KT P6SM SCT250
     FM190100 13010KT P6SM SCT100 BKN250
     FM190500 13012KT P6SM SCT100 BKN200 WS020/16040KT
     FM191200 17010KT P6SM VCSH OVC120
     FM191600 26012KT P6SM VCSH BKN100=

USA.gov is the U.S. government's official web portal to all federal, state and local government web resources and services.